Time;durP1;ratioP1;P1;durP2;ratioP2;P2;SDS_P1;SDS_P2;PMS_P1;PMS_P2;Temp;Humidity;BMP_temperature;BMP_pressure;BME280_temperature;BME280_humidity;BME280_pressure;Samples;Min_cycle;Max_cycle;Signal;HPM_P1;HPM_P2
2021/01/23 00:01:19;;;;;;;15.13;9.40;;;;;;;1.19;79.35;98930.34;1761734;79;21557;-61
2021/01/23 00:03:46;;;;;;;12.93;9.53;;;;;;;1.19;79.33;98928.15;1764306;79;21387;-60
2021/01/23 00:06:14;;;;;;;14.57;9.07;;;;;;;1.18;79.33;98939.66;1730140;81;21175;-58
2021/01/23 00:08:41;;;;;;;16.97;11.47;;;;;;;1.17;79.37;98943.20;1777121;78;21134;-60
2021/01/23 00:11:08;;;;;;;14.60;9.60;;;;;;;1.14;79.38;98940.17;1776927;78;21159;-60
2021/01/23 00:13:36;;;;;;;20.43;12.17;;;;;;;1.13;79.38;98943.72;1773890;79;21139;-60
2021/01/23 00:16:04;;;;;;;15.50;9.67;;;;;;;1.11;79.38;98953.48;1777752;78;21162;-60
2021/01/23 00:18:31;;;;;;;15.30;10.73;;;;;;;1.09;79.35;98947.37;1775746;78;21126;-60
2021/01/23 00:20:58;;;;;;;17.03;9.53;;;;;;;1.08;79.36;98953.12;1773914;79;21098;-59
2021/01/23 00:23:25;;;;;;;13.57;9.23;;;;;;;1.08;79.34;98950.92;1777998;79;21107;-59
2021/01/23 00:25:53;;;;;;;14.33;9.13;;;;;;;1.07;79.31;98952.70;1769417;78;21179;-60
2021/01/23 00:28:20;;;;;;;15.53;9.63;;;;;;;1.05;79.36;98958.48;1775419;78;22383;-60
2021/01/23 00:30:47;;;;;;;15.27;9.30;;;;;;;1.03;79.27;98954.11;1757768;80;21128;-60
2021/01/23 00:33:15;;;;;;;18.30;10.10;;;;;;;0.99;79.34;98964.37;1757285;80;21149;-59
2021/01/23 00:35:43;;;;;;;13.70;10.27;;;;;;;0.97;79.38;98947.63;1759445;80;21608;-59
2021/01/23 00:38:10;;;;;;;15.60;9.87;;;;;;;0.96;79.37;98946.75;1785332;79;21091;-59
2021/01/23 00:40:37;;;;;;;14.27;9.17;;;;;;;0.93;79.34;98948.17;1765408;79;21376;-59
2021/01/23 00:43:04;;;;;;;14.87;9.57;;;;;;;0.92;79.44;98939.80;1760795;80;21206;-60
2021/01/23 00:45:31;;;;;;;11.63;8.50;;;;;;;0.94;79.50;98930.47;1763415;80;21215;-59
2021/01/23 00:48:00;;;;;;;12.37;8.67;;;;;;;0.93;79.58;98928.75;1761535;79;21771;-59
2021/01/23 00:50:29;;;;;;;14.70;9.70;;;;;;;0.93;79.63;98926.97;1737599;80;21229;-58
2021/01/23 00:52:56;;;;;;;14.37;8.53;;;;;;;0.91;79.65;98919.51;1755585;79;21456;-60
2021/01/23 00:55:24;;;;;;;19.03;10.97;;;;;;;0.92;79.70;98924.35;1762164;80;21584;-59
2021/01/23 00:57:51;;;;;;;16.13;10.90;;;;;;;0.90;79.70;98930.13;1760200;80;21408;-58
2021/01/23 01:00:20;;;;;;;14.23;9.90;;;;;;;0.91;79.71;98922.16;1763170;79;22270;-58
2021/01/23 01:02:47;;;;;;;17.03;9.20;;;;;;;0.90;79.72;98923.51;1764702;79;21178;-58
2021/01/23 01:05:17;;;;;;;13.70;8.57;;;;;;;0.91;79.68;98926.13;1759832;80;21470;-58
2021/01/23 01:07:44;;;;;;;13.93;9.23;;;;;;;0.90;79.66;98931.00;1761392;80;21644;-59
2021/01/23 01:10:12;;;;;;;11.63;8.73;;;;;;;0.92;79.70;98929.66;1761325;79;21214;-59
2021/01/23 01:12:39;;;;;;;18.03;9.90;;;;;;;0.93;79.73;98929.62;1732211;80;21186;-59
2021/01/23 01:15:08;;;;;;;14.20;9.70;;;;;;;0.93;79.71;98934.92;1733222;80;21210;-59
2021/01/23 01:17:36;;;;;;;17.17;9.60;;;;;;;0.92;79.69;98942.45;1733011;80;21385;-58
2021/01/23 01:20:07;;;;;;;15.03;10.23;;;;;;;0.91;79.59;98943.35;1732815;80;21794;-58
2021/01/23 01:22:35;;;;;;;12.90;9.83;;;;;;;0.90;79.60;98938.95;1739447;80;21119;-60
2021/01/23 01:25:04;;;;;;;14.27;9.40;;;;;;;0.88;79.61;98931.48;1749228;80;21498;-59
2021/01/23 01:27:31;;;;;;;13.40;9.30;;;;;;;0.87;79.61;98931.06;1724155;81;21116;-60
2021/01/23 01:29:58;;;;;;;11.30;8.07;;;;;;;0.87;79.63;98942.11;1722966;81;21846;-59
2021/01/23 01:32:25;;;;;;;12.20;9.17;;;;;;;0.87;79.64;98940.34;1722413;81;21214;-60
2021/01/23 01:34:53;;;;;;;14.00;9.37;;;;;;;0.86;79.71;98930.64;1725799;81;21502;-59
2021/01/23 01:37:20;;;;;;;16.80;9.47;;;;;;;0.87;79.72;98926.22;1721025;82;21223;-59
2021/01/23 01:39:47;;;;;;;13.00;9.27;;;;;;;0.86;79.66;98922.69;1722446;81;21822;-59
2021/01/23 01:42:14;;;;;;;16.17;10.17;;;;;;;0.85;79.65;98919.62;1721410;81;22108;-59
2021/01/23 01:44:42;;;;;;;14.93;9.90;;;;;;;0.85;79.67;98930.22;1722374;82;21195;-59
2021/01/23 01:47:09;;;;;;;12.93;8.53;;;;;;;0.84;79.62;98931.61;1723221;82;21196;-58
2021/01/23 01:49:37;;;;;;;13.83;8.93;;;;;;;0.82;79.65;98931.63;1722732;81;21185;-59
2021/01/23 01:52:04;;;;;;;12.67;8.43;;;;;;;0.85;79.68;98925.41;1722477;81;21205;-60
2021/01/23 01:54:32;;;;;;;11.97;8.73;;;;;;;0.86;79.65;98936.39;1723011;81;21387;-59
2021/01/23 01:56:59;;;;;;;13.70;9.60;;;;;;;0.84;79.65;98936.45;1723640;81;21205;-60
2021/01/23 01:59:27;;;;;;;13.90;10.40;;;;;;;0.85;79.72;98937.33;1721063;81;21706;-59
2021/01/23 02:02:33;;;;;;;14.37;10.10;;;;;;;0.84;79.71;98940.42;1750180;80;21212;-60
2021/01/23 02:05:08;;;;;;;17.03;10.40;;;;;;;0.85;79.75;98949.25;1733785;80;21238;-59
2021/01/23 02:07:46;;;;;;;16.37;10.70;;;;;;;0.85;79.73;98942.14;1733541;80;21368;-59
2021/01/23 02:10:35;;;;;;;16.57;10.83;;;;;;;0.86;79.75;98937.72;1735253;80;21244;-58
2021/01/23 02:13:26;;;;;;;11.23;8.87;;;;;;;0.89;79.73;98938.98;1757653;80;21546;-58
2021/01/23 02:16:25;;;;;;;10.70;8.20;;;;;;;0.89;79.72;98925.73;1754337;80;21199;-59
2021/01/23 02:19:49;;;;;;;11.37;8.00;;;;;;;0.91;79.68;98923.48;1754481;80;21116;-60
2021/01/23 02:22:29;;;;;;;16.27;8.73;;;;;;;0.96;79.71;98929.53;1817133;75;26687;-58
2021/01/23 02:27:54;;;;;;;13.77;9.20;;;;;;;0.94;79.67;98931.34;1786893;77;26567;-64
2021/01/23 02:30:25;;;;;;;13.40;7.87;;;;;;;0.91;79.61;98930.55;1767494;78;22250;-64
2021/01/23 02:32:55;;;;;;;13.50;8.83;;;;;;;0.90;79.52;98951.33;1768492;78;21466;-62
2021/01/23 02:35:24;;;;;;;10.13;8.17;;;;;;;0.89;79.52;98948.25;1768736;78;21246;-64
2021/01/23 02:37:51;;;;;;;15.30;8.20;;;;;;;0.89;79.54;98954.88;1763568;78;21618;-63
2021/01/23 02:40:18;;;;;;;10.47;8.33;;;;;;;0.90;79.57;98950.88;1761373;78;21067;-62
2021/01/23 02:42:49;;;;;;;13.13;9.93;;;;;;;0.92;79.58;98953.50;1767732;78;21195;-60
2021/01/23 02:45:16;;;;;;;12.83;8.87;;;;;;;0.90;79.51;98951.33;1765919;78;21408;-62
2021/01/23 02:47:44;;;;;;;13.40;8.60;;;;;;;0.89;79.58;98950.45;1762636;78;21091;-62
2021/01/23 02:50:13;;;;;;;12.90;8.93;;;;;;;0.88;79.57;98959.30;1763807;78;21440;-60
2021/01/23 02:53:03;;;;;;;15.73;9.20;;;;;;;0.89;79.51;98946.94;1766776;78;20976;-61
2021/01/23 02:55:33;;;;;;;12.87;8.07;;;;;;;0.88;79.48;98959.76;1767984;78;21136;-62
2021/01/23 02:58:04;;;;;;;12.07;8.13;;;;;;;0.86;79.46;98958.91;1742208;78;21442;-62
2021/01/23 03:00:31;;;;;;;11.47;7.00;;;;;;;0.86;79.46;98958.91;1765781;78;21115;-61
2021/01/23 03:03:00;;;;;;;11.20;7.27;;;;;;;0.87;79.41;98961.53;1764289;78;21422;-62
2021/01/23 03:05:31;;;;;;;16.10;8.97;;;;;;;0.86;79.44;98962.44;1765177;78;21127;-61
2021/01/23 03:07:58;;;;;;;13.03;8.50;;;;;;;0.86;79.48;98948.31;1766586;78;21136;-62
2021/01/23 03:10:38;;;;;;;10.73;8.30;;;;;;;0.85;79.41;98960.69;1768148;78;21435;-61
2021/01/23 03:13:05;;;;;;;11.90;8.53;;;;;;;0.83;79.37;98961.65;1769470;78;21103;-61
2021/01/23 03:15:35;;;;;;;11.07;8.40;;;;;;;0.82;79.37;98963.87;1767084;78;21198;-62
2021/01/23 03:18:03;;;;;;;13.40;9.43;;;;;;;0.80;79.41;98963.03;1718730;81;21137;-63
2021/01/23 03:20:31;;;;;;;16.90;8.97;;;;;;;0.79;79.45;98958.63;1735129;81;21099;-61
2021/01/23 03:22:58;;;;;;;14.37;9.17;;;;;;;0.77;79.46;98952.03;1732609;80;21024;-62
2021/01/23 03:25:25;;;;;;;10.47;7.90;;;;;;;0.75;79.44;98956.07;1729308;80;21144;-62
2021/01/23 03:27:54;;;;;;;13.63;7.80;;;;;;;0.75;79.46;98952.55;1699670;81;21912;-63
2021/01/23 03:30:21;;;;;;;14.07;7.90;;;;;;;0.76;79.48;98942.37;1751673;79;21116;-63
2021/01/23 03:32:49;;;;;;;14.77;8.87;;;;;;;0.76;79.51;98946.34;1752352;79;21104;-61
2021/01/23 03:35:17;;;;;;;18.90;9.10;;;;;;;0.75;79.52;98942.83;1753939;79;21570;-62
2021/01/23 03:37:44;;;;;;;11.27;8.13;;;;;;;0.75;79.56;98948.13;1749403;79;21112;-61
2021/01/23 03:40:13;;;;;;;12.37;8.47;;;;;;;0.75;79.56;98945.92;1748305;79;21630;-61
2021/01/23 03:42:40;;;;;;;14.60;9.37;;;;;;;0.73;79.53;98938.00;1750807;79;21610;-62
2021/01/23 03:45:09;;;;;;;13.37;8.53;;;;;;;0.73;79.48;98939.33;1754692;79;21183;-61
2021/01/23 03:47:37;;;;;;;10.83;8.50;;;;;;;0.71;79.47;98939.80;1752326;79;22648;-62
2021/01/23 03:50:06;;;;;;;17.07;10.80;;;;;;;0.70;79.50;98937.19;1749891;79;21199;-62
2021/01/23 03:52:34;;;;;;;17.87;11.47;;;;;;;0.68;79.51;98949.13;1753160;79;21151;-61
2021/01/23 03:55:01;;;;;;;13.33;9.70;;;;;;;0.64;79.41;98938.65;1751256;79;21116;-61
2021/01/23 03:57:29;;;;;;;13.00;8.37;;;;;;;0.61;79.47;98940.91;1749541;79;21071;-62
2021/01/23 03:59:56;;;;;;;18.37;8.67;;;;;;;0.62;79.48;98935.16;1748770;79;23171;-62
2021/01/23 04:02:23;;;;;;;14.00;8.47;;;;;;;0.62;79.49;98943.09;1747746;79;21163;-63
2021/01/23 04:04:50;;;;;;;14.10;8.93;;;;;;;0.60;79.55;98943.13;1749629;79;21127;-63
2021/01/23 04:07:17;;;;;;;15.27;9.47;;;;;;;0.57;79.44;98963.07;1748422;79;21188;-63
2021/01/23 04:09:46;;;;;;;13.13;8.13;;;;;;;0.52;79.51;98950.36;1749350;79;21252;-61
2021/01/23 04:12:14;;;;;;;11.33;8.37;;;;;;;0.52;79.63;98958.75;1756403;79;22702;-62
2021/01/23 04:14:41;;;;;;;11.40;8.80;;;;;;;0.52;79.60;98956.98;1752024;79;21227;-62
2021/01/23 04:17:09;;;;;;;12.40;8.93;;;;;;;0.51;79.63;98953.06;1751269;79;21597;-62
2021/01/23 04:19:36;;;;;;;14.87;9.10;;;;;;;0.50;79.67;98948.67;1745155;79;21184;-62
2021/01/23 04:22:04;;;;;;;13.53;8.93;;;;;;;0.49;79.69;98954.41;1746520;79;21243;-62
2021/01/23 04:24:31;;;;;;;9.83;8.03;;;;;;;0.50;79.68;98960.14;1747740;79;21755;-62
2021/01/23 04:26:58;;;;;;;10.47;7.10;;;;;;;0.52;79.78;98953.01;1751259;79;21959;-62
2021/01/23 04:29:25;;;;;;;13.43;8.87;;;;;;;0.54;79.81;98952.98;1752511;79;21179;-63
2021/01/23 04:31:53;;;;;;;10.23;8.47;;;;;;;0.53;79.81;98948.13;1714748;81;21790;-61
2021/01/23 04:34:20;;;;;;;13.87;9.07;;;;;;;0.54;79.81;98943.71;1750108;79;22464;-62
2021/01/23 04:36:47;;;;;;;16.40;10.03;;;;;;;0.55;79.79;98938.84;1754359;79;21586;-63
2021/01/23 04:39:14;;;;;;;14.23;9.70;;;;;;;0.55;79.78;98936.19;1751800;79;21216;-61
2021/01/23 04:41:41;;;;;;;14.77;9.57;;;;;;;0.53;79.73;98940.19;1748778;79;21462;-63
2021/01/23 04:44:09;;;;;;;17.17;9.50;;;;;;;0.51;79.73;98938.02;1746520;79;21605;-63
2021/01/23 04:46:36;;;;;;;11.67;8.37;;;;;;;0.50;79.68;98937.62;1749181;79;21624;-63
2021/01/23 04:49:03;;;;;;;14.90;8.83;;;;;;;0.50;79.65;98938.95;1687161;79;21786;-64
2021/01/23 04:51:30;;;;;;;12.50;8.17;;;;;;;0.50;79.69;98940.28;1750011;79;21187;-62
2021/01/23 04:53:57;;;;;;;12.60;8.93;;;;;;;0.50;79.72;98935.43;1750021;79;21826;-61
2021/01/23 04:56:27;;;;;;;15.63;9.73;;;;;;;0.48;79.73;98950.47;1754427;79;21199;-63
2021/01/23 04:58:54;;;;;;;15.37;9.00;;;;;;;0.46;79.66;98955.79;1748532;79;21202;-62
2021/01/23 05:01:22;;;;;;;15.20;9.60;;;;;;;0.44;79.69;98953.62;1727752;79;21554;-62
2021/01/23 05:03:59;;;;;;;12.13;9.33;;;;;;;0.44;79.73;98965.53;1755211;79;21163;-61
2021/01/23 05:06:27;;;;;;;14.97;9.57;;;;;;;0.43;79.74;98973.50;1754733;79;21370;-63
2021/01/23 05:08:55;;;;;;;14.40;8.63;;;;;;;0.40;79.76;98971.81;1750374;79;21187;-63
2021/01/23 05:11:24;;;;;;;13.90;9.30;;;;;;;0.40;79.80;98974.91;1754692;79;22260;-60
2021/01/23 05:14:11;;;;;;;15.57;9.60;;;;;;;0.38;79.81;98967.86;1752300;79;21205;-62
2021/01/23 05:16:39;;;;;;;10.47;8.07;;;;;;;0.38;79.85;98970.51;1756771;79;21159;-60
2021/01/23 05:19:07;;;;;;;13.93;8.23;;;;;;;0.38;79.89;98977.13;1753340;79;21203;-61
2021/01/23 05:21:35;;;;;;;10.67;8.40;;;;;;;0.40;79.89;98976.23;1749737;79;21294;-60
2021/01/23 05:24:11;;;;;;;15.20;9.93;;;;;;;0.39;79.94;98968.73;1748304;79;21115;-63
2021/01/23 05:26:39;;;;;;;14.13;10.10;;;;;;;0.37;79.90;98966.11;1752917;79;21904;-60
2021/01/23 05:29:14;;;;;;;13.97;9.30;;;;;;;0.36;79.91;98960.39;1751922;79;21147;-62
2021/01/23 05:31:42;;;;;;;15.00;9.43;;;;;;;0.36;79.88;98962.17;1756657;79;21227;-61
2021/01/23 05:34:30;;;;;;;14.07;8.57;;;;;;;0.35;79.85;98956.45;1757511;79;21121;-62
2021/01/23 05:36:58;;;;;;;13.90;7.73;;;;;;;0.34;79.86;98958.70;1758816;79;21091;-60
2021/01/23 05:39:49;;;;;;;11.37;7.37;;;;;;;0.31;79.86;98962.27;1767653;79;21494;-61
2021/01/23 05:45:11;;;;;;;15.30;11.35;;;;;;;0.33;79.90;98979.01;1849597;74;39557;-58
2021/01/23 05:47:40;;;;;;;16.03;9.20;;;;;;;0.33;79.89;98969.74;1879619;75;21395;-58
2021/01/23 05:50:09;;;;;;;12.43;8.70;;;;;;;0.37;79.80;98975.38;1880352;75;21195;-58
2021/01/23 05:52:36;;;;;;;16.37;10.57;;;;;;;0.36;79.80;98975.41;1875331;75;20972;-58
2021/01/23 05:55:05;;;;;;;12.33;8.40;;;;;;;0.35;79.75;98978.95;1878681;75;21828;-58
2021/01/23 05:57:34;;;;;;;18.30;9.83;;;;;;;0.32;79.76;98968.44;1815738;77;20952;-58
2021/01/23 06:00:02;;;;;;;13.47;8.20;;;;;;;0.32;79.76;98980.36;1836839;76;21103;-58
2021/01/23 06:02:30;;;;;;;13.03;8.63;;;;;;;0.30;79.76;98968.92;1811070;77;21525;-58
2021/01/23 06:04:58;;;;;;;14.50;9.03;;;;;;;0.29;79.80;98972.02;1807517;77;21281;-59
2021/01/23 06:07:44;;;;;;;10.70;8.10;;;;;;;0.29;79.84;98975.11;1838893;77;21498;-58
2021/01/23 06:10:28;;;;;;;19.40;10.17;;;;;;;0.29;79.86;98972.02;1836685;77;21095;-59
2021/01/23 06:12:57;;;;;;;15.90;9.03;;;;;;;0.27;79.83;98976.91;1833624;77;21439;-58
2021/01/23 06:15:37;;;;;;;15.23;9.33;;;;;;;0.26;79.89;98983.09;1817489;77;22281;-58
2021/01/23 06:18:08;;;;;;;16.50;10.10;;;;;;;0.26;79.89;98991.91;1805197;77;21115;-58
2021/01/23 06:20:47;;;;;;;13.57;8.97;;;;;;;0.26;79.89;98990.59;1806844;77;21113;-58
2021/01/23 06:23:21;;;;;;;12.33;9.27;;;;;;;0.25;79.91;98987.55;1814024;77;21364;-58
2021/01/23 06:25:57;;;;;;;13.03;9.15;;;;;;;0.25;80.01;98981.38;1838084;77;21174;-58
2021/01/23 06:28:41;;;;;;;16.53;10.00;;;;;;;0.27;79.99;98992.34;1840088;77;22160;-58
2021/01/23 06:31:29;;;;;;;15.60;9.43;;;;;;;0.28;79.96;98991.89;1807021;77;21608;-58
2021/01/23 06:33:56;;;;;;;13.60;8.77;;;;;;;0.30;79.95;98992.29;1812624;77;21517;-58
2021/01/23 06:36:23;;;;;;;13.93;9.63;;;;;;;0.34;79.94;98986.50;1837994;77;21103;-58
2021/01/23 06:39:09;;;;;;;10.67;8.20;;;;;;;0.38;79.96;98985.52;1836633;77;21514;-57
2021/01/23 06:41:38;;;;;;;12.77;9.23;;;;;;;0.42;79.95;98988.55;1791133;77;21214;-58
2021/01/23 06:44:17;;;;;;;16.70;10.60;;;;;;;0.46;79.84;98987.56;1808295;77;21235;-58
2021/01/23 06:46:53;;;;;;;13.17;9.93;;;;;;;0.49;79.77;98998.11;1817338;76;21186;-57
2021/01/23 06:49:20;;;;;;;17.07;9.87;;;;;;;0.53;79.74;98986.53;1802956;76;21204;-57
2021/01/23 06:51:47;;;;;;;18.17;10.00;;;;;;;0.56;79.71;98981.19;1811417;77;21194;-58
2021/01/23 06:54:17;;;;;;;15.87;10.43;;;;;;;0.60;79.67;98985.50;1782237;78;21381;-57
2021/01/23 06:56:51;;;;;;;16.03;10.23;;;;;;;0.64;79.62;98979.70;1816057;77;20985;-57
2021/01/23 06:59:26;;;;;;;12.65;8.33;;;;;;;0.69;79.55;98981.79;1819432;77;20976;-57
2021/01/23 07:02:17;;;;;;;14.67;10.07;;;;;;;0.74;79.41;98985.23;1811777;77;21066;-57
2021/01/23 07:04:47;;;;;;;12.40;8.50;;;;;;;0.79;79.39;98994.39;1805516;77;21818;-57
2021/01/23 07:07:16;;;;;;;15.23;9.37;;;;;;;0.84;79.33;99004.46;1806332;77;22126;-57
2021/01/23 07:09:55;;;;;;;17.70;8.80;;;;;;;0.88;79.24;99007.00;1801764;77;21639;-57
2021/01/23 07:12:40;;;;;;;16.23;9.97;;;;;;;0.92;79.17;98996.77;1801261;77;21174;-58
2021/01/23 07:15:15;;;;;;;13.95;9.73;;;;;;;0.98;79.11;98996.63;1820914;77;21731;-58
2021/01/23 07:17:43;;;;;;;;;;;;;;;1.03;78.98;98998.71;1817246;77;22325;-58
2021/01/23 07:20:13;;;;;;;18.57;10.17;;;;;;;1.07;78.94;99009.68;1816721;77;21208;-57
2021/01/23 07:22:41;;;;;;;16.67;11.10;;;;;;;1.12;78.86;99001.61;1814939;77;21115;-57
2021/01/23 07:25:15;;;;;;;16.10;8.87;;;;;;;1.18;78.77;98994.87;1816599;77;21203;-58
2021/01/23 07:27:44;;;;;;;16.70;10.80;;;;;;;1.25;78.68;98992.49;1773607;78;21163;-58
2021/01/23 07:30:15;;;;;;;16.00;9.80;;;;;;;1.32;78.57;98995.42;1779147;78;21110;-57
2021/01/23 07:32:44;;;;;;;16.13;11.20;;;;;;;1.38;78.50;98991.73;1811855;77;21317;-58
2021/01/23 07:35:14;;;;;;;18.43;11.27;;;;;;;1.42;78.36;98987.67;1814681;77;21169;-58
2021/01/23 07:37:54;;;;;;;19.43;11.23;;;;;;;1.49;78.35;98979.11;1814048;77;22261;-58
2021/01/23 07:40:29;;;;;;;20.20;11.80;;;;;;;1.56;78.22;98972.73;1812129;77;21183;-59
2021/01/23 07:43:01;;;;;;;19.50;12.17;;;;;;;1.64;78.05;98985.36;1815268;77;22427;-58
2021/01/23 07:45:28;;;;;;;16.07;10.40;;;;;;;1.73;77.88;98975.84;1812599;77;21191;-58
2021/01/23 07:47:59;;;;;;;17.30;11.93;;;;;;;1.80;77.74;98980.09;1819369;77;21512;-59
2021/01/23 07:50:29;;;;;;;16.77;11.10;;;;;;;1.89;77.59;98985.16;1810340;77;21255;-59
2021/01/23 07:52:56;;;;;;;18.17;12.30;;;;;;;1.96;77.38;98985.87;1788913;77;21119;-59
2021/01/23 07:55:29;;;;;;;17.57;11.77;;;;;;;2.04;77.24;99000.30;1816082;77;21139;-59
2021/01/23 07:58:08;;;;;;;19.37;12.17;;;;;;;2.08;77.04;99008.13;1781281;78;21206;-58
2021/01/23 08:00:35;;;;;;;22.37;12.07;;;;;;;2.14;76.90;99012.39;1809673;77;21108;-59
2021/01/23 08:03:04;;;;;;;13.70;10.07;;;;;;;2.18;76.70;99010.96;1813703;77;21597;-59
2021/01/23 08:05:49;;;;;;;14.73;10.03;;;;;;;2.25;76.57;99007.23;1811360;77;21750;-60
2021/01/23 08:08:34;;;;;;;15.03;10.60;;;;;;;2.35;76.43;99013.17;1821580;77;21113;-59
2021/01/23 08:11:03;;;;;;;19.70;12.30;;;;;;;2.45;76.17;99015.13;1782571;78;22131;-59
2021/01/23 08:13:33;;;;;;;15.07;11.07;;;;;;;2.52;76.02;99016.69;1817414;77;21131;-59
2021/01/23 08:16:12;;;;;;;17.70;11.63;;;;;;;2.59;75.82;99014.28;1811029;77;21169;-60
2021/01/23 08:18:43;;;;;;;17.33;11.07;;;;;;;2.65;75.60;99009.66;1814379;77;21423;-59
2021/01/23 08:21:17;;;;;;;17.40;12.90;;;;;;;2.70;75.37;99006.89;1809661;77;21147;-59
2021/01/23 08:23:44;;;;;;;19.63;12.50;;;;;;;2.75;75.12;99004.95;1818358;77;22113;-60
2021/01/23 08:26:11;;;;;;;21.27;11.67;;;;;;;2.80;74.95;99008.38;1816258;77;21128;-60
2021/01/23 08:28:42;;;;;;;21.00;12.53;;;;;;;2.86;74.85;99004.66;1809277;77;21207;-59
2021/01/23 08:31:25;;;;;;;17.53;10.83;;;;;;;2.91;74.74;99002.27;1812124;77;21164;-60
2021/01/23 08:33:57;;;;;;;16.60;11.93;;;;;;;2.97;74.48;98993.26;1808489;77;21263;-60
2021/01/23 08:36:26;;;;;;;21.73;11.50;;;;;;;3.03;74.33;98993.06;1820441;77;22592;-59
2021/01/23 08:39:05;;;;;;;16.87;11.03;;;;;;;3.07;74.14;98992.04;1815093;77;21107;-60
2021/01/23 08:41:33;;;;;;;16.27;11.40;;;;;;;3.11;73.94;98995.03;1824006;77;20961;-60
2021/01/23 08:44:00;;;;;;;17.73;12.40;;;;;;;3.15;73.80;98997.99;1811482;77;21130;-60
2021/01/23 08:46:27;;;;;;;17.77;11.63;;;;;;;3.21;73.63;99000.49;1761561;80;21160;-60
2021/01/23 08:48:56;;;;;;;17.10;11.47;;;;;;;3.26;73.53;98998.55;1780154;78;21248;-61
2021/01/23 08:51:24;;;;;;;21.47;13.93;;;;;;;3.31;73.38;98997.09;1775662;79;21134;-60
2021/01/23 08:53:51;;;;;;;21.17;13.63;;;;;;;3.35;73.24;99002.72;1779146;79;21142;-60
2021/01/23 08:56:18;;;;;;;18.67;12.77;;;;;;;3.39;73.14;99005.25;1773010;79;21131;-60
2021/01/23 08:58:46;;;;;;;21.93;14.13;;;;;;;3.43;73.02;98998.02;1773163;80;21110;-61
2021/01/23 09:01:14;;;;;;;23.10;13.77;;;;;;;3.48;72.94;98996.56;1774206;80;22124;-60
2021/01/23 09:03:42;;;;;;;18.20;12.07;;;;;;;3.54;72.80;99001.69;1777097;78;21133;-61
2021/01/23 09:06:09;;;;;;;19.97;11.87;;;;;;;3.59;72.65;98995.28;1777197;79;21127;-60
2021/01/23 09:08:36;;;;;;;19.87;11.70;;;;;;;3.65;72.46;98988.45;1773624;79;21134;-61
2021/01/23 09:11:04;;;;;;;16.30;10.67;;;;;;;3.72;72.29;98978.47;1774088;78;21114;-61
2021/01/23 09:13:31;;;;;;;15.67;10.43;;;;;;;3.78;72.18;98977.80;1778169;80;21865;-61
2021/01/23 09:15:58;;;;;;;17.97;11.63;;;;;;;3.86;72.00;98976.21;1775090;78;21255;-64
2021/01/23 09:18:26;;;;;;;16.03;11.27;;;;;;;3.94;71.88;98984.81;1776945;80;21119;-62
2021/01/23 09:20:55;;;;;;;16.17;10.83;;;;;;;3.99;71.69;98976.23;1771255;80;21197;-62
2021/01/23 09:23:22;;;;;;;17.63;11.30;;;;;;;4.04;71.55;98979.59;1778921;78;21581;-62
2021/01/23 09:25:49;;;;;;;18.23;12.07;;;;;;;4.08;71.39;98980.37;1774302;78;21211;-63
2021/01/23 09:28:16;;;;;;;18.63;12.83;;;;;;;4.14;71.24;98968.16;1777862;80;21221;-63
2021/01/23 09:30:44;;;;;;;16.30;11.67;;;;;;;4.18;71.16;98964.45;1773014;78;21189;-63
2021/01/23 09:33:11;;;;;;;17.57;10.57;;;;;;;4.23;70.98;98973.63;1773904;78;21189;-64
2021/01/23 09:35:40;;;;;;;14.57;10.37;;;;;;;4.32;70.77;98967.98;1775446;78;21203;-63
2021/01/23 09:38:07;;;;;;;20.63;11.07;;;;;;;4.38;70.56;98967.30;1769525;79;21368;-63
2021/01/23 09:40:35;;;;;;;16.73;10.40;;;;;;;4.46;70.43;98969.68;1778517;78;21647;-63
2021/01/23 09:43:02;;;;;;;16.57;11.63;;;;;;;4.51;70.29;98967.24;1775590;78;21167;-62
2021/01/23 09:45:30;;;;;;;13.43;9.67;;;;;;;4.56;70.08;98965.30;1776166;78;21177;-62
2021/01/23 09:47:57;;;;;;;14.50;10.87;;;;;;;4.64;69.84;98961.48;1777596;78;21485;-63
2021/01/23 09:50:27;;;;;;;16.10;11.00;;;;;;;4.69;69.64;98964.83;1773739;78;22575;-62
2021/01/23 09:52:54;;;;;;;15.37;8.43;;;;;;;4.74;69.57;98962.89;1775952;78;21175;-62
2021/01/23 09:55:22;;;;;;;12.97;9.77;;;;;;;4.78;69.30;98969.36;1770801;80;21207;-61
2021/01/23 09:57:49;;;;;;;13.73;9.10;;;;;;;4.81;69.17;98978.59;1749360;80;21401;-62
2021/01/23 10:00:18;;;;;;;16.07;9.00;;;;;;;4.85;69.05;98976.66;1768215;78;21194;-61
2021/01/23 10:02:45;;;;;;;13.47;9.40;;;;;;;4.88;68.88;98970.77;1764952;78;21532;-61
2021/01/23 10:05:14;;;;;;;13.50;9.17;;;;;;;4.94;68.83;98978.52;1766667;80;21601;-62
2021/01/23 10:07:41;;;;;;;11.90;8.23;;;;;;;5.02;68.69;98983.56;1767506;80;21178;-62
2021/01/23 10:10:11;;;;;;;17.20;9.60;;;;;;;5.09;68.57;98989.56;1766920;80;21810;-61
2021/01/23 10:12:40;;;;;;;16.20;10.13;;;;;;;5.16;68.36;98983.06;1767742;78;21200;-62
2021/01/23 10:15:08;;;;;;;15.07;10.13;;;;;;;5.21;68.22;98976.61;1766930;78;21238;-61
2021/01/23 10:17:35;;;;;;;13.37;10.07;;;;;;;5.28;67.91;98975.89;1684445;81;21181;-61
2021/01/23 10:20:26;;;;;;;15.53;11.03;;;;;;;5.32;67.76;98975.73;1768237;79;21597;-61
2021/01/23 10:22:53;;;;;;;16.03;11.13;;;;;;;5.35;67.62;98969.88;1649395;84;21194;-63
2021/01/23 10:25:21;;;;;;;15.43;10.67;;;;;;;5.37;67.38;98962.66;1661569;84;21263;-63
2021/01/23 10:27:50;;;;;;;18.17;11.97;;;;;;;5.35;67.26;98954.73;1673076;84;21253;-61
2021/01/23 10:30:19;;;;;;;12.10;10.17;;;;;;;5.35;67.22;98957.41;1668523;84;21269;-62
2021/01/23 10:32:46;;;;;;;15.83;10.40;;;;;;;5.33;67.15;98957.46;1685744;83;21157;-64
2021/01/23 10:35:14;;;;;;;19.73;11.37;;;;;;;5.33;67.05;98949.92;1659873;84;21141;-61
2021/01/23 10:37:41;;;;;;;15.07;9.70;;;;;;;5.33;66.96;98952.59;1659295;84;21240;-63
2021/01/23 10:40:10;;;;;;;17.90;10.97;;;;;;;5.37;66.74;98959.98;1676638;83;22011;-64
2021/01/23 10:42:38;;;;;;;15.80;9.97;;;;;;;5.37;66.80;98954.19;1699392;82;21480;-61
2021/01/23 10:45:07;;;;;;;18.63;10.50;;;;;;;5.38;66.71;98948.38;1708660;82;21213;-61
2021/01/23 10:47:35;;;;;;;13.10;10.40;;;;;;;5.39;66.57;98947.45;1708290;82;21197;-59
2021/01/23 10:50:06;;;;;;;20.60;12.87;;;;;;;5.38;66.48;98947.05;1714070;82;21240;-60
2021/01/23 10:52:34;;;;;;;19.40;11.97;;;;;;;5.35;66.41;98950.73;1697430;82;21208;-61
2021/01/23 10:55:04;;;;;;;19.97;13.07;;;;;;;5.31;66.29;98947.77;1700422;82;21172;-60
2021/01/23 10:57:32;;;;;;;20.23;11.90;;;;;;;5.28;66.23;98943.88;1704248;82;21553;-61
2021/01/23 11:00:00;;;;;;;15.17;10.77;;;;;;;5.22;66.17;98934.33;1699802;82;21200;-61
2021/01/23 11:02:27;;;;;;;15.87;10.63;;;;;;;5.16;66.23;98930.58;1697465;82;21166;-60
2021/01/23 11:04:54;;;;;;;17.70;11.00;;;;;;;5.12;66.30;98933.41;1697892;82;21406;-63
2021/01/23 11:07:21;;;;;;;15.40;10.03;;;;;;;5.05;66.38;98928.78;1702556;83;22018;-61
2021/01/23 11:09:49;;;;;;;14.67;11.17;;;;;;;4.98;66.51;98926.42;1694460;82;21278;-59
2021/01/23 11:12:17;;;;;;;12.83;10.40;;;;;;;4.94;66.59;98916.31;1696042;82;21244;-61
2021/01/23 11:14:45;;;;;;;12.67;9.97;;;;;;;4.92;66.71;98915.53;1699992;83;21269;-61
2021/01/23 11:17:12;;;;;;;14.77;10.63;;;;;;;4.90;66.76;98915.59;1697783;83;21233;-60
2021/01/23 11:19:39;;;;;;;12.27;9.60;;;;;;;4.88;66.79;98919.23;1701236;82;21200;-61
2021/01/23 11:22:07;;;;;;;19.47;13.27;;;;;;;4.86;66.81;98919.74;1700077;82;21892;-61
2021/01/23 11:24:34;;;;;;;17.67;11.87;;;;;;;4.81;66.90;98913.73;1703340;82;21197;-62
2021/01/23 11:27:02;;;;;;;15.23;10.80;;;;;;;4.77;67.08;98916.97;1666636;84;21210;-62
2021/01/23 11:29:31;;;;;;;16.17;11.37;;;;;;;4.71;67.13;98917.67;1663495;84;21278;-63
2021/01/23 11:31:58;;;;;;;18.07;12.00;;;;;;;4.65;67.36;98920.58;1660791;84;21549;-60
2021/01/23 11:34:25;;;;;;;16.90;11.93;;;;;;;4.60;67.48;98927.86;1656384;84;21222;-63
2021/01/23 11:36:54;;;;;;;18.47;12.87;;;;;;;4.52;67.64;98929.47;1662576;84;21593;-59
2021/01/23 11:39:21;;;;;;;17.27;11.80;;;;;;;4.43;67.79;98937.34;1657689;85;21224;-62
2021/01/23 11:41:48;;;;;;;13.87;10.37;;;;;;;4.37;68.01;98942.03;1663188;84;21237;-63
2021/01/23 11:44:16;;;;;;;13.83;10.30;;;;;;;4.35;68.22;98939.41;1664440;84;21198;-60
2021/01/23 11:46:43;;;;;;;14.83;10.57;;;;;;;4.34;68.38;98943.00;1653326;84;21203;-62
2021/01/23 11:49:10;;;;;;;14.07;10.33;;;;;;;4.30;68.57;98941.39;1642350;85;21203;-62